sensor_id;sensor_type;location;lat;lon;timestamp;temperature;humidity
5554;DHT22;2800;49.528;8.666;2023-07-29T00:01:53;19.00;99.90
5554;DHT22;2800;49.528;8.666;2023-07-29T00:04:19;19.00;99.90
5554;DHT22;2800;49.528;8.666;2023-07-29T00:06:45;19.00;99.90
5554;DHT22;2800;49.528;8.666;2023-07-29T00:09:11;19.00;99.90
5554;DHT22;2800;49.528;8.666;2023-07-29T00:11:36;19.10;99.90
5554;DHT22;2800;49.528;8.666;2023-07-29T00:14:02;19.20;99.90
5554;DHT22;2800;49.528;8.666;2023-07-29T00:16:27;19.20;99.90
5554;DHT22;2800;49.528;8.666;2023-07-29T00:18:53;19.30;99.90
5554;DHT22;2800;49.528;8.666;2023-07-29T00:21:19;19.30;99.90
5554;DHT22;2800;49.528;8.666;2023-07-29T00:23:45;19.30;99.90
5554;DHT22;2800;49.528;8.666;2023-07-29T00:26:10;19.20;99.90
5554;DHT22;2800;49.528;8.666;2023-07-29T00:28:36;19.20;99.90
5554;DHT22;2800;49.528;8.666;2023-07-29T00:31:02;19.20;99.90
5554;DHT22;2800;49.528;8.666;2023-07-29T00:33:27;19.20;99.90
5554;DHT22;2800;49.528;8.666;2023-07-29T00:35:53;19.20;99.90
5554;DHT22;2800;49.528;8.666;2023-07-29T00:38:19;19.20;99.90
5554;DHT22;2800;49.528;8.666;2023-07-29T00:40:44;19.30;99.90
5554;DHT22;2800;49.528;8.666;2023-07-29T00:43:10;19.30;99.90
5554;DHT22;2800;49.528;8.666;2023-07-29T00:45:36;19.20;99.90
5554;DHT22;2800;49.528;8.666;2023-07-29T00:48:02;19.30;99.90
5554;DHT22;2800;49.528;8.666;2023-07-29T00:50:29;19.30;99.90
5554;DHT22;2800;49.528;8.666;2023-07-29T00:52:55;19.40;99.90
5554;DHT22;2800;49.528;8.666;2023-07-29T00:55:21;19.40;99.90
5554;DHT22;2800;49.528;8.666;2023-07-29T00:57:47;19.30;99.90
5554;DHT22;2800;49.528;8.666;2023-07-29T01:00:15;19.30;99.90
5554;DHT22;2800;49.528;8.666;2023-07-29T01:02:42;19.40;99.90
5554;DHT22;2800;49.528;8.666;2023-07-29T01:05:08;19.40;99.90
5554;DHT22;2800;49.528;8.666;2023-07-29T01:10:37;19.40;99.90
5554;DHT22;2800;49.528;8.666;2023-07-29T01:15:53;19.40;99.90
5554;DHT22;2800;49.528;8.666;2023-07-29T01:18:31;19.30;99.90
5554;DHT22;2800;49.528;8.666;2023-07-29T01:20:59;19.40;99.90
5554;DHT22;2800;49.528;8.666;2023-07-29T01:23:34;19.40;99.90
5554;DHT22;2800;49.528;8.666;2023-07-29T01:26:00;19.50;99.90
5554;DHT22;2800;49.528;8.666;2023-07-29T01:28:27;19.50;99.90
5554;DHT22;2800;49.528;8.666;2023-07-29T01:33:39;19.40;99.90
5554;DHT22;2800;49.528;8.666;2023-07-29T01:36:15;19.40;99.90
5554;DHT22;2800;49.528;8.666;2023-07-29T01:38:42;19.30;99.90
5554;DHT22;2800;49.528;8.666;2023-07-29T01:41:09;19.30;99.90
5554;DHT22;2800;49.528;8.666;2023-07-29T01:43:36;19.20;99.90
5554;DHT22;2800;49.528;8.666;2023-07-29T01:46:09;19.10;99.90
5554;DHT22;2800;49.528;8.666;2023-07-29T01:48:34;19.10;99.90
5554;DHT22;2800;49.528;8.666;2023-07-29T01:51:00;19.00;99.90
5554;DHT22;2800;49.528;8.666;2023-07-29T01:53:26;18.90;99.90
5554;DHT22;2800;49.528;8.666;2023-07-29T01:55:51;19.00;99.90
5554;DHT22;2800;49.528;8.666;2023-07-29T01:58:17;18.90;99.90
5554;DHT22;2800;49.528;8.666;2023-07-29T02:00:42;18.90;99.90
5554;DHT22;2800;49.528;8.666;2023-07-29T02:03:08;18.90;99.90
5554;DHT22;2800;49.528;8.666;2023-07-29T02:05:33;18.90;99.90
5554;DHT22;2800;49.528;8.666;2023-07-29T02:07:59;18.90;99.90
5554;DHT22;2800;49.528;8.666;2023-07-29T02:10:24;18.80;99.90
5554;DHT22;2800;49.528;8.666;2023-07-29T02:12:50;18.90;99.90
5554;DHT22;2800;49.528;8.666;2023-07-29T02:15:15;18.80;99.90
5554;DHT22;2800;49.528;8.666;2023-07-29T02:17:42;18.80;99.90
5554;DHT22;2800;49.528;8.666;2023-07-29T02:20:08;18.70;99.90
5554;DHT22;2800;49.528;8.666;2023-07-29T02:22:34;18.80;99.90
5554;DHT22;2800;49.528;8.666;2023-07-29T02:24:59;18.90;99.90
5554;DHT22;2800;49.528;8.666;2023-07-29T02:27:25;18.90;99.90
5554;DHT22;2800;49.528;8.666;2023-07-29T02:29:52;19.00;99.90
5554;DHT22;2800;49.528;8.666;2023-07-29T02:32:18;18.90;99.90
5554;DHT22;2800;49.528;8.666;2023-07-29T02:34:44;19.10;99.90
5554;DHT22;2800;49.528;8.666;2023-07-29T02:37:10;19.10;99.90
5554;DHT22;2800;49.528;8.666;2023-07-29T02:39:36;19.10;99.90
5554;DHT22;2800;49.528;8.666;2023-07-29T02:42:01;19.10;99.90
5554;DHT22;2800;49.528;8.666;2023-07-29T02:44:27;19.10;99.90
5554;DHT22;2800;49.528;8.666;2023-07-29T02:46:52;19.10;99.90
5554;DHT22;2800;49.528;8.666;2023-07-29T02:49:20;19.20;99.90
5554;DHT22;2800;49.528;8.666;2023-07-29T02:51:45;19.30;99.90
5554;DHT22;2800;49.528;8.666;2023-07-29T02:54:11;19.30;99.90
5554;DHT22;2800;49.528;8.666;2023-07-29T02:56:36;19.30;99.90
5554;DHT22;2800;49.528;8.666;2023-07-29T02:59:02;19.30;99.90
5554;DHT22;2800;49.528;8.666;2023-07-29T03:01:27;19.30;99.90
5554;DHT22;2800;49.528;8.666;2023-07-29T03:03:53;19.30;99.90
5554;DHT22;2800;49.528;8.666;2023-07-29T03:06:18;19.20;99.90
5554;DHT22;2800;49.528;8.666;2023-07-29T03:08:44;19.10;99.90
5554;DHT22;2800;49.528;8.666;2023-07-29T03:11:12;19.10;99.90
5554;DHT22;2800;49.528;8.666;2023-07-29T03:13:38;19.10;99.90
5554;DHT22;2800;49.528;8.666;2023-07-29T03:16:10;19.10;99.90
5554;DHT22;2800;49.528;8.666;2023-07-29T03:18:36;19.10;99.90
5554;DHT22;2800;49.528;8.666;2023-07-29T03:21:02;19.00;99.90
5554;DHT22;2800;49.528;8.666;2023-07-29T03:23:29;19.00;99.90
5554;DHT22;2800;49.528;8.666;2023-07-29T03:25:55;19.00;99.90
5554;DHT22;2800;49.528;8.666;2023-07-29T03:28:25;19.10;99.90
5554;DHT22;2800;49.528;8.666;2023-07-29T03:30:50;19.00;99.90
5554;DHT22;2800;49.528;8.666;2023-07-29T03:33:16;19.10;99.90
5554;DHT22;2800;49.528;8.666;2023-07-29T03:35:41;19.10;99.90
5554;DHT22;2800;49.528;8.666;2023-07-29T03:38:10;19.10;99.90
5554;DHT22;2800;49.528;8.666;2023-07-29T03:40:36;19.20;99.90
5554;DHT22;2800;49.528;8.666;2023-07-29T03:43:01;19.10;99.90
5554;DHT22;2800;49.528;8.666;2023-07-29T03:45:27;19.10;99.90
5554;DHT22;2800;49.528;8.666;2023-07-29T03:47:52;19.10;99.90
5554;DHT22;2800;49.528;8.666;2023-07-29T03:50:18;19.20;99.90
5554;DHT22;2800;49.528;8.666;2023-07-29T03:52:43;19.20;99.90
5554;DHT22;2800;49.528;8.666;2023-07-29T03:55:09;19.20;99.90
5554;DHT22;2800;49.528;8.666;2023-07-29T03:57:34;19.20;99.90
5554;DHT22;2800;49.528;8.666;2023-07-29T04:00:00;19.20;99.90
5554;DHT22;2800;49.528;8.666;2023-07-29T04:02:26;19.20;99.90
5554;DHT22;2800;49.528;8.666;2023-07-29T04:04:51;19.20;99.90
5554;DHT22;2800;49.528;8.666;2023-07-29T04:07:17;19.30;99.90
5554;DHT22;2800;49.528;8.666;2023-07-29T04:09:42;19.30;99.90
5554;DHT22;2800;49.528;8.666;2023-07-29T04:12:09;19.20;99.90
5554;DHT22;2800;49.528;8.666;2023-07-29T04:14:35;19.30;99.90
5554;DHT22;2800;49.528;8.666;2023-07-29T04:17:00;19.30;99.90
5554;DHT22;2800;49.528;8.666;2023-07-29T04:19:26;19.20;99.90
5554;DHT22;2800;49.528;8.666;2023-07-29T04:21:51;19.20;99.90
5554;DHT22;2800;49.528;8.666;2023-07-29T04:24:17;19.20;99.90
5554;DHT22;2800;49.528;8.666;2023-07-29T04:26:45;19.10;99.90
5554;DHT22;2800;49.528;8.666;2023-07-29T04:29:11;19.10;99.90
5554;DHT22;2800;49.528;8.666;2023-07-29T04:31:37;19.20;99.90
5554;DHT22;2800;49.528;8.666;2023-07-29T04:34:02;19.10;99.90
5554;DHT22;2800;49.528;8.666;2023-07-29T04:36:28;19.20;99.90
5554;DHT22;2800;49.528;8.666;2023-07-29T04:38:53;19.20;99.90
5554;DHT22;2800;49.528;8.666;2023-07-29T04:41:19;19.20;99.90
5554;DHT22;2800;49.528;8.666;2023-07-29T04:43:44;19.10;99.90
5554;DHT22;2800;49.528;8.666;2023-07-29T04:46:10;19.10;99.90
5554;DHT22;2800;49.528;8.666;2023-07-29T04:48:36;19.10;99.90
5554;DHT22;2800;49.528;8.666;2023-07-29T04:51:01;19.10;99.90
5554;DHT22;2800;49.528;8.666;2023-07-29T04:53:27;19.10;99.90
5554;DHT22;2800;49.528;8.666;2023-07-29T04:55:52;19.10;99.90
5554;DHT22;2800;49.528;8.666;2023-07-29T04:58:18;19.10;99.90
5554;DHT22;2800;49.528;8.666;2023-07-29T05:00:43;19.10;99.90
5554;DHT22;2800;49.528;8.666;2023-07-29T05:03:09;19.10;99.90
5554;DHT22;2800;49.528;8.666;2023-07-29T05:05:34;19.10;99.90
5554;DHT22;2800;49.528;8.666;2023-07-29T05:08:00;19.10;99.90
5554;DHT22;2800;49.528;8.666;2023-07-29T05:10:25;19.00;99.90
5554;DHT22;2800;49.528;8.666;2023-07-29T05:12:51;18.90;99.90
5554;DHT22;2800;49.528;8.666;2023-07-29T05:15:16;18.90;99.90
5554;DHT22;2800;49.528;8.666;2023-07-29T05:17:42;18.80;99.90
5554;DHT22;2800;49.528;8.666;2023-07-29T05:20:08;18.80;99.90
5554;DHT22;2800;49.528;8.666;2023-07-29T05:22:33;18.70;99.90
5554;DHT22;2800;49.528;8.666;2023-07-29T05:24:59;18.70;99.90
5554;DHT22;2800;49.528;8.666;2023-07-29T05:27:24;18.70;99.90
5554;DHT22;2800;49.528;8.666;2023-07-29T05:29:50;18.60;99.90
5554;DHT22;2800;49.528;8.666;2023-07-29T05:32:15;18.60;99.90
5554;DHT22;2800;49.528;8.666;2023-07-29T05:34:41;18.60;99.90
5554;DHT22;2800;49.528;8.666;2023-07-29T05:37:06;18.50;99.90
5554;DHT22;2800;49.528;8.666;2023-07-29T05:39:32;18.50;99.90
5554;DHT22;2800;49.528;8.666;2023-07-29T05:41:58;18.50;99.90
5554;DHT22;2800;49.528;8.666;2023-07-29T05:44:24;18.50;99.90
5554;DHT22;2800;49.528;8.666;2023-07-29T05:46:49;18.50;99.90
5554;DHT22;2800;49.528;8.666;2023-07-29T05:49:15;18.50;99.90
5554;DHT22;2800;49.528;8.666;2023-07-29T05:51:40;18.50;99.90
5554;DHT22;2800;49.528;8.666;2023-07-29T05:54:06;18.50;99.90
5554;DHT22;2800;49.528;8.666;2023-07-29T05:56:31;18.50;99.90
5554;DHT22;2800;49.528;8.666;2023-07-29T05:58:57;18.50;99.90
5554;DHT22;2800;49.528;8.666;2023-07-29T06:01:23;18.50;99.90
5554;DHT22;2800;49.528;8.666;2023-07-29T06:03:48;18.50;99.90
5554;DHT22;2800;49.528;8.666;2023-07-29T06:06:14;18.50;99.90
5554;DHT22;2800;49.528;8.666;2023-07-29T06:08:39;18.50;99.90
5554;DHT22;2800;49.528;8.666;2023-07-29T06:11:05;18.50;99.90
5554;DHT22;2800;49.528;8.666;2023-07-29T06:13:32;18.60;99.90
5554;DHT22;2800;49.528;8.666;2023-07-29T06:15:57;19.20;99.90
5554;DHT22;2800;49.528;8.666;2023-07-29T06:18:24;18.70;99.90
5554;DHT22;2800;49.528;8.666;2023-07-29T06:20:50;18.70;99.90
5554;DHT22;2800;49.528;8.666;2023-07-29T06:23:15;18.70;99.90
5554;DHT22;2800;49.528;8.666;2023-07-29T06:25:41;18.90;99.90
5554;DHT22;2800;49.528;8.666;2023-07-29T06:28:06;18.90;99.90
5554;DHT22;2800;49.528;8.666;2023-07-29T06:30:32;19.00;99.90
5554;DHT22;2800;49.528;8.666;2023-07-29T06:32:57;19.00;99.90
5554;DHT22;2800;49.528;8.666;2023-07-29T06:35:23;19.10;99.90
5554;DHT22;2800;49.528;8.666;2023-07-29T06:37:49;19.10;99.90
5554;DHT22;2800;49.528;8.666;2023-07-29T06:40:14;19.10;99.90
5554;DHT22;2800;49.528;8.666;2023-07-29T06:42:40;19.20;99.90
5554;DHT22;2800;49.528;8.666;2023-07-29T06:45:06;19.20;99.90
5554;DHT22;2800;49.528;8.666;2023-07-29T06:47:32;19.30;99.90
5554;DHT22;2800;49.528;8.666;2023-07-29T06:49:57;19.30;99.90
5554;DHT22;2800;49.528;8.666;2023-07-29T06:52:23;19.30;99.90
5554;DHT22;2800;49.528;8.666;2023-07-29T06:54:48;19.20;99.90
5554;DHT22;2800;49.528;8.666;2023-07-29T06:57:14;19.20;99.90
5554;DHT22;2800;49.528;8.666;2023-07-29T06:59:39;19.30;99.90
5554;DHT22;2800;49.528;8.666;2023-07-29T07:02:06;19.30;99.90
5554;DHT22;2800;49.528;8.666;2023-07-29T07:04:32;19.40;99.90
5554;DHT22;2800;49.528;8.666;2023-07-29T07:06:57;19.50;99.90
5554;DHT22;2800;49.528;8.666;2023-07-29T07:09:23;19.60;99.90
5554;DHT22;2800;49.528;8.666;2023-07-29T07:11:48;19.80;99.90
5554;DHT22;2800;49.528;8.666;2023-07-29T07:14:14;20.00;99.90
5554;DHT22;2800;49.528;8.666;2023-07-29T07:16:40;20.10;99.90
5554;DHT22;2800;49.528;8.666;2023-07-29T07:19:05;20.00;99.90
5554;DHT22;2800;49.528;8.666;2023-07-29T07:21:31;20.10;99.90
5554;DHT22;2800;49.528;8.666;2023-07-29T07:23:58;20.20;99.90
5554;DHT22;2800;49.528;8.666;2023-07-29T07:26:23;20.50;99.90
5554;DHT22;2800;49.528;8.666;2023-07-29T07:28:49;20.50;99.90
5554;DHT22;2800;49.528;8.666;2023-07-29T07:31:16;20.50;99.90
5554;DHT22;2800;49.528;8.666;2023-07-29T07:33:42;20.40;99.90
5554;DHT22;2800;49.528;8.666;2023-07-29T07:36:07;20.50;99.90
5554;DHT22;2800;49.528;8.666;2023-07-29T07:38:33;20.60;99.90
5554;DHT22;2800;49.528;8.666;2023-07-29T07:40:58;20.60;99.90
5554;DHT22;2800;49.528;8.666;2023-07-29T07:43:24;20.50;99.90
5554;DHT22;2800;49.528;8.666;2023-07-29T07:45:51;20.60;99.90
5554;DHT22;2800;49.528;8.666;2023-07-29T07:48:16;20.60;99.90
5554;DHT22;2800;49.528;8.666;2023-07-29T07:50:42;20.50;99.90
5554;DHT22;2800;49.528;8.666;2023-07-29T07:53:08;20.50;99.90
5554;DHT22;2800;49.528;8.666;2023-07-29T07:55:34;20.40;99.90
5554;DHT22;2800;49.528;8.666;2023-07-29T07:57:59;20.50;99.90
5554;DHT22;2800;49.528;8.666;2023-07-29T08:00:25;20.30;99.90
5554;DHT22;2800;49.528;8.666;2023-07-29T08:02:50;20.40;99.90
5554;DHT22;2800;49.528;8.666;2023-07-29T08:05:15;20.40;99.90
5554;DHT22;2800;49.528;8.666;2023-07-29T08:07:41;20.60;99.90
5554;DHT22;2800;49.528;8.666;2023-07-29T08:10:08;20.90;99.90
5554;DHT22;2800;49.528;8.666;2023-07-29T08:12:33;21.20;99.90
5554;DHT22;2800;49.528;8.666;2023-07-29T08:14:59;21.40;99.90
5554;DHT22;2800;49.528;8.666;2023-07-29T08:17:24;21.30;99.90
5554;DHT22;2800;49.528;8.666;2023-07-29T08:19:50;20.80;99.90
5554;DHT22;2800;49.528;8.666;2023-07-29T08:22:15;20.50;99.90
5554;DHT22;2800;49.528;8.666;2023-07-29T08:24:42;20.30;99.90
5554;DHT22;2800;49.528;8.666;2023-07-29T08:27:08;20.20;99.90
5554;DHT22;2800;49.528;8.666;2023-07-29T08:29:33;20.20;99.90
5554;DHT22;2800;49.528;8.666;2023-07-29T08:31:59;20.10;99.90
5554;DHT22;2800;49.528;8.666;2023-07-29T08:34:24;20.20;99.90
5554;DHT22;2800;49.528;8.666;2023-07-29T08:36:50;20.20;99.90
5554;DHT22;2800;49.528;8.666;2023-07-29T08:39:15;20.10;99.90
5554;DHT22;2800;49.528;8.666;2023-07-29T08:41:49;20.20;99.90
5554;DHT22;2800;49.528;8.666;2023-07-29T08:44:21;20.60;99.90
5554;DHT22;2800;49.528;8.666;2023-07-29T08:46:50;20.90;99.90
5554;DHT22;2800;49.528;8.666;2023-07-29T08:49:18;20.90;99.90
5554;DHT22;2800;49.528;8.666;2023-07-29T08:51:48;20.80;99.90
5554;DHT22;2800;49.528;8.666;2023-07-29T08:54:15;20.90;99.90
5554;DHT22;2800;49.528;8.666;2023-07-29T08:56:41;21.30;99.90
5554;DHT22;2800;49.528;8.666;2023-07-29T08:59:08;21.40;99.90
5554;DHT22;2800;49.528;8.666;2023-07-29T09:01:33;21.60;99.90
5554;DHT22;2800;49.528;8.666;2023-07-29T09:03:59;21.40;99.90
5554;DHT22;2800;49.528;8.666;2023-07-29T09:06:25;21.20;99.90
5554;DHT22;2800;49.528;8.666;2023-07-29T09:08:53;21.40;99.90
5554;DHT22;2800;49.528;8.666;2023-07-29T09:11:19;21.20;99.90
5554;DHT22;2800;49.528;8.666;2023-07-29T09:13:46;21.20;99.90
5554;DHT22;2800;49.528;8.666;2023-07-29T09:16:12;21.50;99.90
5554;DHT22;2800;49.528;8.666;2023-07-29T09:18:37;22.10;99.90
5554;DHT22;2800;49.528;8.666;2023-07-29T09:21:03;22.20;99.90
5554;DHT22;2800;49.528;8.666;2023-07-29T09:23:38;22.40;99.90
5554;DHT22;2800;49.528;8.666;2023-07-29T09:26:04;22.50;99.90
5554;DHT22;2800;49.528;8.666;2023-07-29T09:28:39;22.80;99.90
5554;DHT22;2800;49.528;8.666;2023-07-29T09:31:05;22.10;99.90
5554;DHT22;2800;49.528;8.666;2023-07-29T09:33:35;22.10;99.90
5554;DHT22;2800;49.528;8.666;2023-07-29T09:36:09;22.40;99.90
5554;DHT22;2800;49.528;8.666;2023-07-29T09:38:35;22.50;99.90
5554;DHT22;2800;49.528;8.666;2023-07-29T09:41:01;23.00;99.90
5554;DHT22;2800;49.528;8.666;2023-07-29T09:43:32;23.50;99.90
5554;DHT22;2800;49.528;8.666;2023-07-29T09:46:04;24.00;99.90
5554;DHT22;2800;49.528;8.666;2023-07-29T09:48:38;24.00;99.90
5554;DHT22;2800;49.528;8.666;2023-07-29T09:51:11;23.60;99.90
5554;DHT22;2800;49.528;8.666;2023-07-29T09:53:45;23.80;99.90
5554;DHT22;2800;49.528;8.666;2023-07-29T09:56:12;24.10;99.90
5554;DHT22;2800;49.528;8.666;2023-07-29T09:58:38;24.10;99.90
5554;DHT22;2800;49.528;8.666;2023-07-29T10:01:06;24.40;99.90
5554;DHT22;2800;49.528;8.666;2023-07-29T10:03:32;23.90;99.90
5554;DHT22;2800;49.528;8.666;2023-07-29T10:06:03;23.80;99.90
5554;DHT22;2800;49.528;8.666;2023-07-29T10:08:32;23.90;99.90
5554;DHT22;2800;49.528;8.666;2023-07-29T10:11:01;24.10;99.90
5554;DHT22;2800;49.528;8.666;2023-07-29T10:13:27;24.20;99.90
5554;DHT22;2800;49.528;8.666;2023-07-29T10:15:56;24.10;99.90
5554;DHT22;2800;49.528;8.666;2023-07-29T10:18:23;24.30;99.90
5554;DHT22;2800;49.528;8.666;2023-07-29T10:20:51;23.90;99.90
5554;DHT22;2800;49.528;8.666;2023-07-29T10:23:18;23.90;99.90
5554;DHT22;2800;49.528;8.666;2023-07-29T10:25:49;24.50;99.90
5554;DHT22;2800;49.528;8.666;2023-07-29T10:28:17;24.20;99.90
5554;DHT22;2800;49.528;8.666;2023-07-29T10:30:45;25.00;99.90
5554;DHT22;2800;49.528;8.666;2023-07-29T10:33:11;24.90;99.90
5554;DHT22;2800;49.528;8.666;2023-07-29T10:35:37;24.50;99.90
5554;DHT22;2800;49.528;8.666;2023-07-29T10:38:03;23.50;99.90
5554;DHT22;2800;49.528;8.666;2023-07-29T10:40:44;23.40;99.90
5554;DHT22;2800;49.528;8.666;2023-07-29T10:43:11;23.30;99.90
5554;DHT22;2800;49.528;8.666;2023-07-29T10:45:41;23.60;99.90
5554;DHT22;2800;49.528;8.666;2023-07-29T10:51:27;24.40;99.90
5554;DHT22;2800;49.528;8.666;2023-07-29T10:54:11;25.00;99.90
5554;DHT22;2800;49.528;8.666;2023-07-29T10:56:41;26.00;99.90
5554;DHT22;2800;49.528;8.666;2023-07-29T11:01:41;26.40;99.90
5554;DHT22;2800;49.528;8.666;2023-07-29T11:17:46;27.00;99.90
5554;DHT22;2800;49.528;8.666;2023-07-29T11:20:13;26.50;99.90
5554;DHT22;2800;49.528;8.666;2023-07-29T11:22:39;26.10;99.90
5554;DHT22;2800;49.528;8.666;2023-07-29T11:25:07;25.30;99.90
5554;DHT22;2800;49.528;8.666;2023-07-29T11:27:33;24.60;99.90
5554;DHT22;2800;49.528;8.666;2023-07-29T11:29:59;23.80;99.90
5554;DHT22;2800;49.528;8.666;2023-07-29T11:32:25;23.40;99.90
5554;DHT22;2800;49.528;8.666;2023-07-29T11:34:51;22.90;99.90
5554;DHT22;2800;49.528;8.666;2023-07-29T11:37:17;23.00;99.90
5554;DHT22;2800;49.528;8.666;2023-07-29T11:39:45;23.60;99.90
5554;DHT22;2800;49.528;8.666;2023-07-29T11:42:14;24.50;99.90
5554;DHT22;2800;49.528;8.666;2023-07-29T11:44:40;25.10;99.90
5554;DHT22;2800;49.528;8.666;2023-07-29T11:47:07;24.60;99.90
5554;DHT22;2800;49.528;8.666;2023-07-29T11:49:33;24.70;99.90
5554;DHT22;2800;49.528;8.666;2023-07-29T11:52:00;24.50;99.90
5554;DHT22;2800;49.528;8.666;2023-07-29T11:54:26;24.70;99.90
5554;DHT22;2800;49.528;8.666;2023-07-29T11:56:51;25.50;99.90
5554;DHT22;2800;49.528;8.666;2023-07-29T11:59:17;27.00;99.90
5554;DHT22;2800;49.528;8.666;2023-07-29T12:01:43;27.00;99.90
5554;DHT22;2800;49.528;8.666;2023-07-29T12:04:08;27.00;99.90
5554;DHT22;2800;49.528;8.666;2023-07-29T12:06:35;27.90;99.90
5554;DHT22;2800;49.528;8.666;2023-07-29T12:09:01;26.90;99.90
5554;DHT22;2800;49.528;8.666;2023-07-29T12:11:26;26.80;99.90
5554;DHT22;2800;49.528;8.666;2023-07-29T12:13:53;27.10;99.90
5554;DHT22;2800;49.528;8.666;2023-07-29T12:16:19;26.40;99.90
5554;DHT22;2800;49.528;8.666;2023-07-29T12:18:45;27.30;99.90
5554;DHT22;2800;49.528;8.666;2023-07-29T12:21:10;29.00;99.20
5554;DHT22;2800;49.528;8.666;2023-07-29T12:23:36;28.50;93.50
5554;DHT22;2800;49.528;8.666;2023-07-29T12:26:02;28.40;93.60
5554;DHT22;2800;49.528;8.666;2023-07-29T12:28:28;27.30;94.70
5554;DHT22;2800;49.528;8.666;2023-07-29T12:30:54;26.50;97.70
5554;DHT22;2800;49.528;8.666;2023-07-29T12:33:37;26.30;99.90
5554;DHT22;2800;49.528;8.666;2023-07-29T12:36:07;26.00;99.90
5554;DHT22;2800;49.528;8.666;2023-07-29T12:38:32;26.10;99.90
5554;DHT22;2800;49.528;8.666;2023-07-29T12:40:58;25.90;99.50
5554;DHT22;2800;49.528;8.666;2023-07-29T12:43:25;25.70;99.90
5554;DHT22;2800;49.528;8.666;2023-07-29T12:45:51;25.80;99.80
5554;DHT22;2800;49.528;8.666;2023-07-29T12:48:16;25.80;99.90
5554;DHT22;2800;49.528;8.666;2023-07-29T12:50:42;25.70;99.90
5554;DHT22;2800;49.528;8.666;2023-07-29T12:53:08;27.30;95.80
5554;DHT22;2800;49.528;8.666;2023-07-29T12:55:36;27.10;93.20
5554;DHT22;2800;49.528;8.666;2023-07-29T12:58:01;27.20;88.20
5554;DHT22;2800;49.528;8.666;2023-07-29T13:00:27;27.20;88.70
5554;DHT22;2800;49.528;8.666;2023-07-29T13:02:53;28.30;87.80
5554;DHT22;2800;49.528;8.666;2023-07-29T13:05:20;28.90;82.10
5554;DHT22;2800;49.528;8.666;2023-07-29T13:07:46;28.80;77.70
5554;DHT22;2800;49.528;8.666;2023-07-29T13:10:12;28.90;78.10
5554;DHT22;2800;49.528;8.666;2023-07-29T13:12:39;28.20;73.50
5554;DHT22;2800;49.528;8.666;2023-07-29T13:15:05;28.50;74.20
5554;DHT22;2800;49.528;8.666;2023-07-29T13:17:32;28.10;75.20
5554;DHT22;2800;49.528;8.666;2023-07-29T13:19:57;27.90;72.70
5554;DHT22;2800;49.528;8.666;2023-07-29T13:22:23;27.70;75.60
5554;DHT22;2800;49.528;8.666;2023-07-29T13:24:48;27.20;74.30
5554;DHT22;2800;49.528;8.666;2023-07-29T13:27:14;26.80;77.50
5554;DHT22;2800;49.528;8.666;2023-07-29T13:29:40;26.70;75.50
5554;DHT22;2800;49.528;8.666;2023-07-29T13:32:06;26.20;74.60
5554;DHT22;2800;49.528;8.666;2023-07-29T13:34:31;25.90;75.10
5554;DHT22;2800;49.528;8.666;2023-07-29T13:36:57;25.90;76.00
5554;DHT22;2800;49.528;8.666;2023-07-29T13:39:23;25.90;76.40
5554;DHT22;2800;49.528;8.666;2023-07-29T13:41:48;26.00;75.70
5554;DHT22;2800;49.528;8.666;2023-07-29T13:44:14;26.20;75.40
5554;DHT22;2800;49.528;8.666;2023-07-29T13:46:39;27.20;75.00
5554;DHT22;2800;49.528;8.666;2023-07-29T13:49:05;27.50;73.10
5554;DHT22;2800;49.528;8.666;2023-07-29T13:51:30;28.70;73.30
5554;DHT22;2800;49.528;8.666;2023-07-29T13:53:56;28.20;71.30
5554;DHT22;2800;49.528;8.666;2023-07-29T13:56:22;28.70;68.10
5554;DHT22;2800;49.528;8.666;2023-07-29T13:58:47;28.20;69.20
5554;DHT22;2800;49.528;8.666;2023-07-29T14:01:13;26.90;67.10
5554;DHT22;2800;49.528;8.666;2023-07-29T14:03:38;26.20;70.50
5554;DHT22;2800;49.528;8.666;2023-07-29T14:06:04;27.30;72.70
5554;DHT22;2800;49.528;8.666;2023-07-29T14:08:29;28.20;70.00
5554;DHT22;2800;49.528;8.666;2023-07-29T14:10:55;29.40;70.00
5554;DHT22;2800;49.528;8.666;2023-07-29T14:13:21;28.20;68.90
5554;DHT22;2800;49.528;8.666;2023-07-29T14:15:46;27.70;70.30
5554;DHT22;2800;49.528;8.666;2023-07-29T14:18:12;28.20;69.60
5554;DHT22;2800;49.528;8.666;2023-07-29T14:20:37;28.50;68.40
5554;DHT22;2800;49.528;8.666;2023-07-29T14:23:03;28.00;70.10
5554;DHT22;2800;49.528;8.666;2023-07-29T14:25:28;27.80;70.10
5554;DHT22;2800;49.528;8.666;2023-07-29T14:27:55;26.90;68.60
5554;DHT22;2800;49.528;8.666;2023-07-29T14:30:20;26.80;69.60
5554;DHT22;2800;49.528;8.666;2023-07-29T14:32:46;27.40;67.50
5554;DHT22;2800;49.528;8.666;2023-07-29T14:35:11;27.30;68.20
5554;DHT22;2800;49.528;8.666;2023-07-29T14:37:37;28.00;66.90
5554;DHT22;2800;49.528;8.666;2023-07-29T14:40:04;28.00;66.30
5554;DHT22;2800;49.528;8.666;2023-07-29T14:42:30;28.50;65.30
5554;DHT22;2800;49.528;8.666;2023-07-29T14:44:55;28.00;63.00
5554;DHT22;2800;49.528;8.666;2023-07-29T14:47:21;28.20;66.50
5554;DHT22;2800;49.528;8.666;2023-07-29T14:49:46;28.00;63.30
5554;DHT22;2800;49.528;8.666;2023-07-29T14:52:13;27.30;63.40
5554;DHT22;2800;49.528;8.666;2023-07-29T14:54:38;26.90;66.60
5554;DHT22;2800;49.528;8.666;2023-07-29T14:57:06;26.50;65.50
5554;DHT22;2800;49.528;8.666;2023-07-29T14:59:32;26.10;66.30
5554;DHT22;2800;49.528;8.666;2023-07-29T15:01:57;26.80;65.70
5554;DHT22;2800;49.528;8.666;2023-07-29T15:04:23;27.40;63.40
5554;DHT22;2800;49.528;8.666;2023-07-29T15:06:49;27.10;63.20
5554;DHT22;2800;49.528;8.666;2023-07-29T15:09:15;27.40;64.80
5554;DHT22;2800;49.528;8.666;2023-07-29T15:11:40;27.30;64.40
5554;DHT22;2800;49.528;8.666;2023-07-29T15:14:06;27.80;66.60
5554;DHT22;2800;49.528;8.666;2023-07-29T15:16:32;27.90;68.00
5554;DHT22;2800;49.528;8.666;2023-07-29T15:18:59;27.90;66.80
5554;DHT22;2800;49.528;8.666;2023-07-29T15:21:24;27.80;66.30
5554;DHT22;2800;49.528;8.666;2023-07-29T15:23:50;28.00;67.90
5554;DHT22;2800;49.528;8.666;2023-07-29T15:26:16;27.80;67.70
5554;DHT22;2800;49.528;8.666;2023-07-29T15:28:41;28.00;71.10
5554;DHT22;2800;49.528;8.666;2023-07-29T15:31:07;27.90;66.90
5554;DHT22;2800;49.528;8.666;2023-07-29T15:33:32;27.80;68.40
5554;DHT22;2800;49.528;8.666;2023-07-29T15:36:00;28.30;67.60
5554;DHT22;2800;49.528;8.666;2023-07-29T15:38:25;28.10;66.40
5554;DHT22;2800;49.528;8.666;2023-07-29T15:40:50;28.00;67.90
5554;DHT22;2800;49.528;8.666;2023-07-29T15:43:17;27.70;68.10
5554;DHT22;2800;49.528;8.666;2023-07-29T15:45:43;27.90;67.60
5554;DHT22;2800;49.528;8.666;2023-07-29T15:48:09;27.50;68.30
5554;DHT22;2800;49.528;8.666;2023-07-29T15:50:35;26.90;68.00
5554;DHT22;2800;49.528;8.666;2023-07-29T15:53:00;26.60;68.50
5554;DHT22;2800;49.528;8.666;2023-07-29T15:55:28;26.50;70.30
5554;DHT22;2800;49.528;8.666;2023-07-29T15:57:54;26.90;68.90
5554;DHT22;2800;49.528;8.666;2023-07-29T16:00:19;26.70;69.30
5554;DHT22;2800;49.528;8.666;2023-07-29T16:02:47;27.00;72.20
5554;DHT22;2800;49.528;8.666;2023-07-29T16:05:13;27.10;72.90
5554;DHT22;2800;49.528;8.666;2023-07-29T16:07:38;27.10;71.70
5554;DHT22;2800;49.528;8.666;2023-07-29T16:10:04;27.00;72.00
5554;DHT22;2800;49.528;8.666;2023-07-29T16:12:30;27.20;72.70
5554;DHT22;2800;49.528;8.666;2023-07-29T16:14:55;27.20;73.40
5554;DHT22;2800;49.528;8.666;2023-07-29T16:17:21;26.90;71.90
5554;DHT22;2800;49.528;8.666;2023-07-29T16:20:00;26.80;72.70
5554;DHT22;2800;49.528;8.666;2023-07-29T16:22:26;26.70;74.70
5554;DHT22;2800;49.528;8.666;2023-07-29T16:24:51;26.60;73.00